createdAt,value
2022-10-08T00:00:58.703Z,16.27
2022-10-08T00:03:32.199Z,12.35
2022-10-08T00:06:03.853Z,15.57
2022-10-08T00:08:37.327Z,14.13
2022-10-08T00:11:13.480Z,17.77
2022-10-08T00:13:43.913Z,15.55
2022-10-08T00:16:17.202Z,16.67
2022-10-08T00:18:52.366Z,11.38
2022-10-08T00:21:25.641Z,13.75
2022-10-08T00:23:56.273Z,13.38
2022-10-08T00:26:37.520Z,11.45
2022-10-08T00:29:09.731Z,13.65
2022-10-08T00:31:47.933Z,8.93
2022-10-08T00:34:21.229Z,15.32
2022-10-08T00:36:57.842Z,10.05
2022-10-08T00:39:31.117Z,6.80
2022-10-08T00:42:02.332Z,9.35
2022-10-08T00:44:59.142Z,11.48
2022-10-08T00:47:40.640Z,10.63
2022-10-08T00:50:17.754Z,6.90
2022-10-08T00:52:58.752Z,12.35
2022-10-08T00:55:29.428Z,14.20
2022-10-08T00:58:04.571Z,14.00
2022-10-08T01:00:36.117Z,8.95
2022-10-08T01:03:06.408Z,14.57
2022-10-08T01:05:52.497Z,13.13
2022-10-08T01:08:35.467Z,14.65
2022-10-08T01:11:14.289Z,13.73
2022-10-08T01:13:55.593Z,13.20
2022-10-08T01:16:35.227Z,15.88
2022-10-08T01:19:23.373Z,15.63
2022-10-08T01:22:09.264Z,18.58
2022-10-08T01:27:44.009Z,13.05
2022-10-08T01:30:18.427Z,14.98
2022-10-08T01:32:56.554Z,11.18
2022-10-08T01:35:33.194Z,15.77
2022-10-08T01:38:07.813Z,11.55
2022-10-08T01:40:43.663Z,10.85
2022-10-08T01:43:18.697Z,11.90
2022-10-08T01:45:54.385Z,12.13
2022-10-08T01:48:31.206Z,14.40
2022-10-08T01:51:04.402Z,18.20
2022-10-08T01:53:41.394Z,12.30
2022-10-08T01:56:18.624Z,10.18
2022-10-08T01:58:56.790Z,10.55
2022-10-08T02:01:36.687Z,13.50
2022-10-08T02:04:23.552Z,12.75
2022-10-08T02:06:57.781Z,18.13
2022-10-08T02:09:44.492Z,17.75
2022-10-08T02:12:14.587Z,13.13
2022-10-08T02:14:50.468Z,13.45
2022-10-08T02:17:35.586Z,13.70
2022-10-08T02:20:19.349Z,14.45
2022-10-08T02:22:59.346Z,17.77
2022-10-08T02:25:35.810Z,25.10
2022-10-08T02:28:13.577Z,18.38
2022-10-08T02:30:54.027Z,18.80
2022-10-08T02:33:33.627Z,12.55
2022-10-08T02:36:10.723Z,13.98
2022-10-08T02:38:46.268Z,21.23
2022-10-08T02:43:51.863Z,18.60
2022-10-08T02:46:31.536Z,15.00
2022-10-08T02:49:08.462Z,23.85
2022-10-08T02:51:43.061Z,19.05
2022-10-08T02:54:12.597Z,16.53
2022-10-08T02:56:48.076Z,16.88
2022-10-08T02:59:19.382Z,19.13
2022-10-08T03:01:55.305Z,21.15
2022-10-08T03:04:29.301Z,17.67
2022-10-08T03:07:00.895Z,14.65
2022-10-08T03:09:37.302Z,14.27
2022-10-08T03:12:08.905Z,16.30
2022-10-08T03:14:42.986Z,15.85
2022-10-08T03:17:17.077Z,22.73
2022-10-08T03:19:45.916Z,16.05
2022-10-08T03:22:15.232Z,17.85
2022-10-08T03:24:43.905Z,13.35
2022-10-08T03:27:15.462Z,18.65
2022-10-08T03:29:49.475Z,23.38
2022-10-08T03:32:22.145Z,20.98
2022-10-08T03:34:50.915Z,24.63
2022-10-08T03:37:21.862Z,20.30
2022-10-08T03:39:50.929Z,20.90
2022-10-08T03:42:20.910Z,26.05
2022-10-08T03:44:50.467Z,30.00
2022-10-08T03:47:23.721Z,26.48
2022-10-08T03:50:04.364Z,18.42
2022-10-08T03:52:34.119Z,21.20
2022-10-08T03:55:02.677Z,26.50
2022-10-08T03:57:31.818Z,25.35
2022-10-08T04:00:02.053Z,26.75
2022-10-08T04:02:33.472Z,16.88
2022-10-08T04:05:04.097Z,18.30
2022-10-08T04:07:34.163Z,25.42
2022-10-08T04:10:05.089Z,29.38
2022-10-08T04:12:36.841Z,28.40
2022-10-08T04:15:07.761Z,33.78
2022-10-08T04:17:38.711Z,21.23
2022-10-08T04:20:08.587Z,35.38
2022-10-08T04:22:38.320Z,22.50
2022-10-08T04:25:07.866Z,22.23
2022-10-08T04:27:37.912Z,19.02
2022-10-08T04:30:09.300Z,30.73
2022-10-08T04:32:40.904Z,21.15
2022-10-08T04:35:12.560Z,22.30
2022-10-08T04:37:42.420Z,19.95
2022-10-08T04:40:12.506Z,27.45
2022-10-08T04:42:42.799Z,17.52
2022-10-08T04:45:13.404Z,19.33
2022-10-08T04:47:45.257Z,20.60
2022-10-08T04:50:14.273Z,14.45
2022-10-08T04:52:47.762Z,20.85
2022-10-08T04:55:19.664Z,15.98
2022-10-08T04:57:49.018Z,21.67
2022-10-08T05:00:22.836Z,24.88
2022-10-08T05:02:53.818Z,27.77
2022-10-08T05:05:25.940Z,18.27
2022-10-08T05:07:56.969Z,16.77
2022-10-08T05:10:28.713Z,19.50
2022-10-08T05:12:58.763Z,16.75
2022-10-08T05:15:27.716Z,21.15
2022-10-08T05:18:08.074Z,21.02
2022-10-08T05:20:40.772Z,14.95
2022-10-08T05:23:11.289Z,19.88
2022-10-08T05:25:40.604Z,16.80
2022-10-08T05:28:11.258Z,12.68
2022-10-08T05:30:40.856Z,17.60
2022-10-08T05:33:10.859Z,17.77
2022-10-08T05:35:40.203Z,19.33
2022-10-08T05:38:08.738Z,26.45
2022-10-08T05:40:37.292Z,16.42
2022-10-08T05:43:08.331Z,25.52
2022-10-08T05:45:40.428Z,14.55
2022-10-08T05:48:36.160Z,25.88
2022-10-08T05:51:10.397Z,29.13
2022-10-08T05:53:47.428Z,18.67
2022-10-08T05:56:21.801Z,17.67
2022-10-08T05:58:54.011Z,12.77
2022-10-08T06:01:26.445Z,16.83
2022-10-08T06:04:04.484Z,24.73
2022-10-08T06:06:38.582Z,17.83
2022-10-08T06:09:10.148Z,18.08
2022-10-08T06:11:41.745Z,17.92
2022-10-08T06:14:14.235Z,14.80
2022-10-08T06:16:43.215Z,17.60
2022-10-08T06:19:14.783Z,19.35
2022-10-08T06:21:46.707Z,13.43
2022-10-08T06:24:16.595Z,19.45
2022-10-08T06:26:48.867Z,18.55
2022-10-08T06:29:22.833Z,16.65
2022-10-08T06:31:57.830Z,20.15
2022-10-08T06:34:29.244Z,15.10
2022-10-08T06:37:00.193Z,21.50
2022-10-08T06:39:31.550Z,24.40
2022-10-08T06:42:00.854Z,17.00
2022-10-08T06:44:29.828Z,14.98
2022-10-08T06:46:59.277Z,21.42
2022-10-08T06:49:29.574Z,22.63
2022-10-08T06:52:02.275Z,15.90
2022-10-08T06:54:32.444Z,18.17
2022-10-08T06:57:03.283Z,18.05
2022-10-08T06:59:33.398Z,19.85
2022-10-08T07:02:06.971Z,14.45
2022-10-08T07:04:38.387Z,12.90
2022-10-08T07:07:07.046Z,13.05
2022-10-08T07:09:37.547Z,13.07
2022-10-08T07:12:06.925Z,13.93
2022-10-08T07:14:36.167Z,10.13
2022-10-08T07:17:09.368Z,20.92
2022-10-08T07:19:42.648Z,15.55
2022-10-08T07:22:11.543Z,19.63
2022-10-08T07:24:41.053Z,11.73
2022-10-08T07:27:10.908Z,16.83
2022-10-08T07:29:39.459Z,17.23
2022-10-08T07:32:10.487Z,14.82
2022-10-08T07:34:42.856Z,17.48
2022-10-08T07:37:11.590Z,24.17
2022-10-08T07:39:41.250Z,15.68
2022-10-08T07:42:10.291Z,12.38
2022-10-08T07:44:38.908Z,13.77
2022-10-08T07:47:09.707Z,12.68
2022-10-08T07:49:41.619Z,16.35
2022-10-08T07:52:15.801Z,19.55
2022-10-08T07:54:45.670Z,13.35
2022-10-08T07:57:14.235Z,16.90
2022-10-08T07:59:43.266Z,12.80
2022-10-08T08:02:13.483Z,16.17
2022-10-08T08:04:43.866Z,15.75
2022-10-08T08:07:12.539Z,12.75
2022-10-08T08:09:42.584Z,9.80
2022-10-08T08:12:12.496Z,13.05
2022-10-08T08:14:44.447Z,17.05
2022-10-08T08:17:13.235Z,17.40
2022-10-08T08:19:44.614Z,14.20
2022-10-08T08:22:27.264Z,12.02
2022-10-08T08:24:56.261Z,19.45
2022-10-08T08:27:30.717Z,15.25
2022-10-08T08:29:59.283Z,9.17
2022-10-08T08:32:33.858Z,7.70
2022-10-08T08:35:07.914Z,8.27
2022-10-08T08:37:36.450Z,10.23
2022-10-08T08:40:11.344Z,13.25
2022-10-08T08:45:47.134Z,11.60
2022-10-08T08:48:20.854Z,10.55
2022-10-08T08:50:58.943Z,13.32
2022-10-08T08:53:30.293Z,9.32
2022-10-08T08:56:10.569Z,8.88
2022-10-08T08:58:44.226Z,11.65
2022-10-08T09:14:47.153Z,11.70
2022-10-08T09:17:19.432Z,7.65
2022-10-08T09:19:49.885Z,13.60
2022-10-08T09:22:26.382Z,11.70
2022-10-08T09:25:00.740Z,10.07
2022-10-08T09:27:54.241Z,7.88
2022-10-08T09:30:45.980Z,14.25
2022-10-08T09:33:26.412Z,10.18
2022-10-08T09:35:56.743Z,12.27
2022-10-08T09:38:30.976Z,14.45
2022-10-08T09:41:10.806Z,13.48
2022-10-08T09:46:48.195Z,8.05
2022-10-08T09:49:36.948Z,9.40
2022-10-08T09:52:17.123Z,9.02
2022-10-08T09:54:50.296Z,13.85
2022-10-08T09:57:38.456Z,10.38
2022-10-08T10:00:36.491Z,11.35
2022-10-08T10:03:25.556Z,8.60
2022-10-08T10:06:01.006Z,10.45
2022-10-08T10:11:41.161Z,13.02
2022-10-08T10:14:27.848Z,8.70
2022-10-08T10:17:06.024Z,11.30
2022-10-08T10:19:53.377Z,9.48
2022-10-08T10:22:30.867Z,7.00
2022-10-08T10:28:16.588Z,13.88
2022-10-08T10:31:04.757Z,7.03
2022-10-08T10:33:41.245Z,6.72
2022-10-08T10:39:52.556Z,6.78
2022-10-08T10:42:50.923Z,9.27
2022-10-08T10:56:14.056Z,11.77
2022-10-08T11:05:51.735Z,8.77
2022-10-08T11:12:01.323Z,12.30
2022-10-08T11:15:34.427Z,7.60
2022-10-08T11:18:26.707Z,15.32
2022-10-08T11:21:21.542Z,13.52
2022-10-08T11:30:29.430Z,9.38
2022-10-08T11:33:17.478Z,8.35
2022-10-08T11:39:39.976Z,15.48
2022-10-08T11:42:17.867Z,9.52
2022-10-08T11:44:47.328Z,15.20
2022-10-08T11:47:51.181Z,13.05
2022-10-08T11:50:34.009Z,7.72
2022-10-08T11:53:24.543Z,8.73
2022-10-08T11:56:04.454Z,10.60
2022-10-08T11:58:35.430Z,8.35
2022-10-08T12:01:06.845Z,12.10
2022-10-08T12:03:39.098Z,9.07
2022-10-08T12:06:21.394Z,11.75
2022-10-08T12:08:57.517Z,9.07
2022-10-08T12:11:52.048Z,13.07
2022-10-08T12:14:49.585Z,8.35
2022-10-08T12:17:20.886Z,11.43
2022-10-08T12:20:22.321Z,9.48
2022-10-08T12:23:08.881Z,7.90
2022-10-08T12:26:12.374Z,12.45
2022-10-08T12:28:53.054Z,6.57
2022-10-08T12:31:39.620Z,9.55
2022-10-08T12:34:19.934Z,7.45
2022-10-08T12:37:04.694Z,11.50
2022-10-08T12:39:43.400Z,7.35
2022-10-08T12:42:20.909Z,13.18
2022-10-08T12:45:16.585Z,15.45
2022-10-08T12:47:53.826Z,14.43
2022-10-08T12:50:47.159Z,13.30
2022-10-08T12:53:18.850Z,13.32
2022-10-08T12:55:51.287Z,11.93
2022-10-08T12:58:23.990Z,9.07
2022-10-08T13:01:03.028Z,15.73
2022-10-08T13:03:35.454Z,9.98
2022-10-08T13:06:23.062Z,10.93
2022-10-08T13:08:53.433Z,13.23
2022-10-08T13:11:23.152Z,10.93
2022-10-08T13:13:53.244Z,13.68
2022-10-08T13:16:26.744Z,11.48
2022-10-08T13:19:00.172Z,17.15
2022-10-08T13:21:40.887Z,12.38
2022-10-08T13:24:38.669Z,12.70
2022-10-08T13:27:22.506Z,11.90
2022-10-08T13:29:51.197Z,9.95
2022-10-08T13:32:27.020Z,14.93
2022-10-08T13:35:01.029Z,12.60
2022-10-08T13:37:38.839Z,10.38
2022-10-08T13:40:21.671Z,14.73
2022-10-08T13:42:52.126Z,11.88
2022-10-08T13:45:26.476Z,13.43
2022-10-08T13:47:59.269Z,15.05
2022-10-08T13:50:28.248Z,16.63
2022-10-08T13:53:01.504Z,17.38
2022-10-08T13:55:35.456Z,10.10
2022-10-08T13:58:06.739Z,9.10
2022-10-08T14:00:40.026Z,15.20
2022-10-08T14:03:25.572Z,11.05
2022-10-08T14:05:54.730Z,18.02
2022-10-08T14:08:31.539Z,12.77
2022-10-08T14:11:01.468Z,10.98
2022-10-08T14:13:31.001Z,6.28
2022-10-08T14:16:00.581Z,5.78
2022-10-08T14:18:30.727Z,8.52
2022-10-08T14:21:01.360Z,9.85
2022-10-08T14:23:33.323Z,8.68
2022-10-08T14:26:02.984Z,8.18
2022-10-08T14:28:32.265Z,7.00
2022-10-08T14:31:04.235Z,6.95
2022-10-08T14:33:35.590Z,8.57
2022-10-08T14:36:17.594Z,16.05
2022-10-08T14:38:46.760Z,10.20
2022-10-08T14:41:18.591Z,9.23
2022-10-08T14:43:48.159Z,9.02
2022-10-08T14:46:21.336Z,8.30
2022-10-08T14:48:51.874Z,11.88
2022-10-08T14:51:20.765Z,14.05
2022-10-08T14:53:50.285Z,10.57
2022-10-08T14:56:20.717Z,5.88
2022-10-08T14:58:51.727Z,8.45
2022-10-08T15:01:20.589Z,6.15
2022-10-08T15:03:53.360Z,8.43
2022-10-08T15:06:22.601Z,7.93
2022-10-08T15:08:53.950Z,13.40
2022-10-08T15:11:24.309Z,11.57
2022-10-08T15:13:56.044Z,12.38
2022-10-08T15:16:24.960Z,9.15
2022-10-08T15:18:54.745Z,12.27
2022-10-08T15:21:23.238Z,9.90
2022-10-08T15:24:01.348Z,9.25
2022-10-08T15:26:32.377Z,10.18
2022-10-08T15:29:02.025Z,12.48
2022-10-08T15:31:31.460Z,8.15
2022-10-08T15:34:16.767Z,12.40
2022-10-08T15:36:47.478Z,6.53
2022-10-08T15:39:21.464Z,7.70
2022-10-08T15:41:53.354Z,10.70
2022-10-08T15:44:26.340Z,12.07
2022-10-08T15:47:03.045Z,10.18
2022-10-08T15:49:35.301Z,10.15
2022-10-08T15:52:15.963Z,12.10
2022-10-08T15:54:48.666Z,21.70
2022-10-08T15:57:19.785Z,14.18
2022-10-08T15:59:48.435Z,12.48
2022-10-08T16:02:24.488Z,8.15
2022-10-08T16:04:54.911Z,6.97
2022-10-08T16:07:24.123Z,11.23
2022-10-08T16:09:53.012Z,7.85
2022-10-08T16:12:29.875Z,12.68
2022-10-08T16:15:00.141Z,13.88
2022-10-08T16:17:29.201Z,12.35
2022-10-08T16:19:59.641Z,16.70
2022-10-08T16:22:35.504Z,14.45
2022-10-08T16:25:05.663Z,14.13
2022-10-08T16:27:35.203Z,14.38
2022-10-08T16:30:04.391Z,8.27
2022-10-08T16:32:33.318Z,12.77
2022-10-08T16:35:03.968Z,14.10
2022-10-08T16:37:32.731Z,11.40
2022-10-08T16:40:04.034Z,17.45
2022-10-08T16:42:33.003Z,10.80
2022-10-08T16:45:05.013Z,12.23
2022-10-08T16:47:36.859Z,14.30
2022-10-08T16:50:08.723Z,16.70
2022-10-08T16:52:37.913Z,13.20
2022-10-08T16:55:07.230Z,14.43
2022-10-08T16:57:36.279Z,17.08
2022-10-08T17:00:06.223Z,13.23
2022-10-08T17:02:35.163Z,20.65
2022-10-08T17:05:10.393Z,14.05
2022-10-08T17:07:38.750Z,12.25
2022-10-08T17:10:11.165Z,15.38
2022-10-08T17:12:40.655Z,11.38
2022-10-08T17:15:14.984Z,16.63
2022-10-08T17:17:51.970Z,16.85
2022-10-08T17:20:29.128Z,12.32
2022-10-08T17:23:01.991Z,18.75
2022-10-08T17:25:31.329Z,6.47
2022-10-08T17:28:00.148Z,9.68
2022-10-08T17:30:28.867Z,17.05
2022-10-08T17:32:57.856Z,17.45
2022-10-08T17:35:28.321Z,13.95
2022-10-08T17:37:59.255Z,16.73
2022-10-08T17:40:31.642Z,17.35
2022-10-08T17:43:00.776Z,12.13
2022-10-08T17:45:33.107Z,22.55
2022-10-08T17:48:01.877Z,13.73
2022-10-08T17:50:43.640Z,10.93
2022-10-08T17:53:17.252Z,12.40
2022-10-08T17:55:46.682Z,16.08
2022-10-08T17:58:16.684Z,18.95
2022-10-08T18:00:48.106Z,18.92
2022-10-08T18:03:17.746Z,19.17
2022-10-08T18:06:07.218Z,18.10
2022-10-08T18:08:37.247Z,19.52
2022-10-08T18:11:11.938Z,15.85
2022-10-08T18:13:41.479Z,23.60
2022-10-08T18:16:16.447Z,24.23
2022-10-08T18:18:51.322Z,13.65
2022-10-08T18:21:25.424Z,13.35
2022-10-08T18:23:56.227Z,11.77
2022-10-08T18:26:34.569Z,24.55
2022-10-08T18:29:15.263Z,10.73
2022-10-08T18:31:46.832Z,18.77
2022-10-08T18:34:26.818Z,16.17
2022-10-08T18:37:03.998Z,17.77
2022-10-08T18:39:33.582Z,11.25
2022-10-08T18:42:06.913Z,19.80
2022-10-08T18:44:36.002Z,16.35
2022-10-08T18:47:11.272Z,14.73
2022-10-08T18:49:41.396Z,16.10
2022-10-08T18:52:17.957Z,10.70
2022-10-08T18:55:01.904Z,17.73
2022-10-08T18:57:33.963Z,27.58
2022-10-08T19:02:44.089Z,17.27
2022-10-08T19:05:21.807Z,11.88
2022-10-08T19:07:59.137Z,19.13
2022-10-08T19:10:36.378Z,16.58
2022-10-08T19:13:10.897Z,19.27
2022-10-08T19:15:52.922Z,21.67
2022-10-08T19:18:25.372Z,17.55
2022-10-08T19:21:03.081Z,15.48
2022-10-08T19:23:38.328Z,12.35
2022-10-08T19:26:12.735Z,11.80
2022-10-08T19:28:52.898Z,19.02
2022-10-08T19:31:33.136Z,14.35
2022-10-08T19:34:08.819Z,19.67
2022-10-08T19:36:44.920Z,19.67
2022-10-08T19:39:22.869Z,13.02
2022-10-08T19:41:55.046Z,18.52
2022-10-08T19:44:31.011Z,13.50
2022-10-08T19:47:11.968Z,12.90
2022-10-08T19:49:42.696Z,15.07
2022-10-08T19:52:14.962Z,14.27
2022-10-08T19:54:45.879Z,19.63
2022-10-08T19:57:15.616Z,15.32
2022-10-08T19:59:44.714Z,15.15
2022-10-08T20:02:15.193Z,18.65
2022-10-08T20:04:49.223Z,14.50
2022-10-08T20:07:20.074Z,18.00
2022-10-08T20:09:56.216Z,15.15
2022-10-08T20:12:40.094Z,18.23
2022-10-08T20:15:11.539Z,14.55
2022-10-08T20:17:43.220Z,21.67
2022-10-08T20:20:31.693Z,20.45
2022-10-08T20:23:00.913Z,17.85
2022-10-08T20:25:32.055Z,20.63
2022-10-08T20:28:01.121Z,18.15
2022-10-08T20:30:30.376Z,18.88
2022-10-08T20:32:59.086Z,14.65
2022-10-08T20:35:29.999Z,21.38
2022-10-08T20:38:01.005Z,16.45
2022-10-08T20:40:31.593Z,14.70
2022-10-08T20:43:01.753Z,19.65
2022-10-08T20:45:31.377Z,24.08
2022-10-08T20:48:01.509Z,20.10
2022-10-08T20:50:31.774Z,19.77
2022-10-08T20:53:00.311Z,13.57
2022-10-08T20:55:31.238Z,17.27
2022-10-08T20:58:00.683Z,18.40
2022-10-08T21:00:30.453Z,21.73
2022-10-08T21:03:00.474Z,15.57
2022-10-08T21:05:31.241Z,19.00
2022-10-08T21:08:02.961Z,31.17
2022-10-08T21:10:38.984Z,21.00
2022-10-08T21:13:08.475Z,18.63
2022-10-08T21:15:37.462Z,21.45
2022-10-08T21:18:06.789Z,18.23
2022-10-08T21:20:39.270Z,18.35
2022-10-08T21:23:11.408Z,15.73
2022-10-08T21:25:42.595Z,15.10
2022-10-08T21:28:13.819Z,15.13
2022-10-08T21:30:44.142Z,23.98
2022-10-08T21:33:13.130Z,19.35
2022-10-08T21:35:41.818Z,22.30
2022-10-08T21:38:12.121Z,19.40
2022-10-08T21:40:46.950Z,21.98
2022-10-08T21:43:17.582Z,21.98
2022-10-08T21:45:56.878Z,17.50
2022-10-08T21:48:33.284Z,48.28
2022-10-08T21:51:05.382Z,24.83
2022-10-08T21:53:37.371Z,20.35
2022-10-08T21:56:17.728Z,23.83
2022-10-08T21:58:50.173Z,24.23
2022-10-08T22:01:25.901Z,20.63
2022-10-08T22:03:56.244Z,19.60
2022-10-08T22:06:26.849Z,27.10
2022-10-08T22:08:56.484Z,18.27
2022-10-08T22:11:28.093Z,21.63
2022-10-08T22:13:57.403Z,23.98
2022-10-08T22:16:29.970Z,29.58
2022-10-08T22:19:00.309Z,33.15
2022-10-08T22:21:29.681Z,34.15
2022-10-08T22:23:58.985Z,43.47
2022-10-08T22:26:32.965Z,51.72
2022-10-08T22:29:03.383Z,46.10
2022-10-08T22:31:35.412Z,44.78
2022-10-08T22:34:04.597Z,39.70
2022-10-08T22:36:38.657Z,36.30
2022-10-08T22:39:10.005Z,27.55
2022-10-08T22:41:40.689Z,26.65
2022-10-08T22:44:09.872Z,22.00
2022-10-08T22:46:41.477Z,26.65
2022-10-08T22:49:14.121Z,30.55
2022-10-08T22:51:46.918Z,27.77
2022-10-08T22:54:17.884Z,28.52
2022-10-08T22:56:50.404Z,20.10
2022-10-08T22:59:29.272Z,26.20
2022-10-08T23:01:59.387Z,19.42
2022-10-08T23:04:28.453Z,19.40
2022-10-08T23:06:57.045Z,19.27
2022-10-08T23:09:26.118Z,17.15
2022-10-08T23:11:57.424Z,21.52
2022-10-08T23:14:26.943Z,20.83
2022-10-08T23:16:58.535Z,22.65
2022-10-08T23:19:29.882Z,23.35
2022-10-08T23:22:02.141Z,23.67
2022-10-08T23:24:31.390Z,24.00
2022-10-08T23:27:01.804Z,17.65
2022-10-08T23:29:30.774Z,16.27
2022-10-08T23:31:59.921Z,20.08
2022-10-08T23:34:28.528Z,22.52
2022-10-08T23:36:57.790Z,20.23
2022-10-08T23:39:26.932Z,19.20
2022-10-08T23:41:56.134Z,16.15
2022-10-08T23:44:26.547Z,17.13
2022-10-08T23:46:56.774Z,22.67
2022-10-08T23:49:27.617Z,27.40
2022-10-08T23:51:58.459Z,26.00
2022-10-08T23:54:28.262Z,21.33
2022-10-08T23:56:57.309Z,19.38
2022-10-08T23:59:29.871Z,16.67
